Time;durP1;ratioP1;P1;durP2;ratioP2;P2;SDS_P1;SDS_P2;PMS_P1;PMS_P2;Temp;Humidity;BMP_temperature;BMP_pressure;BME280_temperature;BME280_humidity;BME280_pressure;Samples;Min_cycle;Max_cycle;Signal;HPM_P1;HPM_P2
2023/05/28 00:02:34;;;;;;;21.43;9.73;;;13.60;99.90;;;;;;4940745;28;20263;-60
2023/05/28 00:05:05;;;;;;;21.50;9.47;;;13.50;99.90;;;;;;4951480;28;20224;-60
2023/05/28 00:07:33;;;;;;;20.67;10.07;;;13.40;99.90;;;;;;4952528;28;20212;-60
2023/05/28 00:10:02;;;;;;;20.10;10.47;;;13.30;99.90;;;;;;4953765;28;20235;-60
2023/05/28 00:12:30;;;;;;;26.50;11.07;;;13.20;99.90;;;;;;4948448;28;20208;-60
2023/05/28 00:14:59;;;;;;;21.83;10.10;;;13.20;99.90;;;;;;4953361;28;20279;-60
2023/05/28 00:17:28;;;;;;;22.10;10.70;;;13.20;99.90;;;;;;4951426;28;20771;-60
2023/05/28 00:19:57;;;;;;;23.07;10.50;;;13.20;99.90;;;;;;4941415;28;20854;-60
2023/05/28 00:22:27;;;;;;;19.17;11.23;;;13.30;99.90;;;;;;4951223;28;21827;-60
2023/05/28 00:24:55;;;;;;;20.87;10.60;;;13.20;99.90;;;;;;4946970;28;20865;-60
2023/05/28 00:27:27;;;;;;;25.17;11.33;;;13.20;99.90;;;;;;4948262;28;20192;-59
2023/05/28 00:29:55;;;;;;;25.77;11.03;;;13.10;99.90;;;;;;4950000;28;20197;-60
2023/05/28 00:32:23;;;;;;;27.33;11.83;;;13.10;99.90;;;;;;4951232;28;20224;-60
2023/05/28 00:34:52;;;;;;;25.07;11.13;;;13.10;99.90;;;;;;4950655;28;20263;-60
2023/05/28 00:37:20;;;;;;;27.13;12.40;;;13.00;99.90;;;;;;4949449;28;20348;-60
2023/05/28 00:39:50;;;;;;;26.13;10.90;;;13.00;99.90;;;;;;4956170;28;20219;-60
2023/05/28 00:42:18;;;;;;;24.57;11.83;;;13.00;99.90;;;;;;4950398;28;20188;-60
2023/05/28 00:44:47;;;;;;;28.97;11.70;;;13.00;99.90;;;;;;4945411;28;20864;-60
2023/05/28 00:47:15;;;;;;;26.80;11.63;;;13.00;99.90;;;;;;4953005;28;20219;-60
2023/05/28 00:49:45;;;;;;;28.47;12.07;;;13.00;99.90;;;;;;4952542;28;20333;-60
2023/05/28 00:52:13;;;;;;;29.50;11.97;;;12.90;99.90;;;;;;4952155;28;20232;-60
2023/05/28 00:54:42;;;;;;;26.63;12.03;;;12.90;99.90;;;;;;4948295;28;20244;-60
2023/05/28 00:57:12;;;;;;;26.60;11.70;;;12.90;99.90;;;;;;4950392;28;20228;-60
2023/05/28 00:59:40;;;;;;;26.20;12.10;;;12.80;99.90;;;;;;4952107;28;20556;-60
2023/05/28 01:02:09;;;;;;;34.33;12.17;;;12.80;99.90;;;;;;4950053;28;20628;-60
2023/05/28 01:04:37;;;;;;;25.27;11.53;;;12.80;99.90;;;;;;4951849;28;20334;-60
2023/05/28 01:07:06;;;;;;;29.17;12.73;;;12.80;99.90;;;;;;4949584;28;20224;-60
2023/05/28 01:09:34;;;;;;;30.90;13.60;;;12.80;99.90;;;;;;4952093;28;20251;-60
2023/05/28 01:12:06;;;;;;;24.80;12.37;;;12.80;99.90;;;;;;4950321;28;20218;-60
2023/05/28 01:14:38;;;;;;;28.07;13.10;;;12.80;99.90;;;;;;4960173;28;20225;-60
2023/05/28 01:17:07;;;;;;;31.63;13.37;;;12.70;99.90;;;;;;4944157;28;20232;-60
2023/05/28 01:19:35;;;;;;;26.47;12.83;;;12.70;99.90;;;;;;4951622;28;20232;-60
2023/05/28 01:22:06;;;;;;;30.97;13.17;;;12.70;99.90;;;;;;4950571;28;20224;-60
2023/05/28 01:24:37;;;;;;;28.33;13.23;;;12.70;99.90;;;;;;4946420;28;20188;-60
2023/05/28 01:27:05;;;;;;;30.57;13.60;;;12.70;99.90;;;;;;4947530;28;20321;-60
2023/05/28 01:29:33;;;;;;;31.37;13.47;;;12.70;99.90;;;;;;4951673;28;20224;-60
2023/05/28 01:32:02;;;;;;;26.33;13.17;;;12.70;99.90;;;;;;4952173;28;20832;-60
2023/05/28 01:34:31;;;;;;;24.53;12.33;;;12.70;99.90;;;;;;4951614;28;20228;-60
2023/05/28 01:37:01;;;;;;;25.30;12.70;;;12.60;99.90;;;;;;4951985;28;20224;-60
2023/05/28 01:39:41;;;;;;;29.67;12.87;;;12.60;99.90;;;;;;4951449;28;20192;-60
2023/05/28 01:42:10;;;;;;;25.97;13.57;;;12.60;99.90;;;;;;4952264;28;20226;-60
2023/05/28 01:44:41;;;;;;;28.77;13.17;;;12.60;99.90;;;;;;4951964;28;20234;-60
2023/05/28 01:47:10;;;;;;;27.07;13.43;;;12.50;99.90;;;;;;4948219;28;20243;-60
2023/05/28 01:49:39;;;;;;;36.63;14.50;;;12.50;99.90;;;;;;4951235;28;20227;-60
2023/05/28 01:52:08;;;;;;;30.53;13.60;;;12.50;99.90;;;;;;4951022;28;20235;-60
2023/05/28 01:54:38;;;;;;;31.70;14.07;;;12.50;99.90;;;;;;4947093;28;20188;-60
2023/05/28 01:57:07;;;;;;;29.33;13.47;;;12.50;99.90;;;;;;4948807;28;20990;-60
2023/05/28 01:59:35;;;;;;;34.10;15.20;;;12.50;99.90;;;;;;4951397;28;20216;-60
2023/05/28 02:02:06;;;;;;;29.87;14.33;;;12.40;99.90;;;;;;4949542;28;20232;-60
2023/05/28 02:04:34;;;;;;;27.47;14.30;;;12.40;99.90;;;;;;4950476;28;20227;-60
2023/05/28 02:07:03;;;;;;;30.27;13.70;;;12.30;99.90;;;;;;4950357;28;20228;-60
2023/05/28 02:09:31;;;;;;;30.43;13.20;;;12.30;99.90;;;;;;4949621;28;20203;-60
2023/05/28 02:12:02;;;;;;;26.57;13.43;;;12.30;99.90;;;;;;4948423;28;20214;-60
2023/05/28 02:14:32;;;;;;;27.83;13.40;;;12.20;99.90;;;;;;4950178;28;20591;-60
2023/05/28 02:17:01;;;;;;;32.43;14.50;;;12.20;99.90;;;;;;4946590;28;20256;-60
2023/05/28 02:19:29;;;;;;;24.20;13.60;;;12.20;99.90;;;;;;4947039;28;20223;-60
2023/05/28 02:21:58;;;;;;;36.03;14.30;;;12.10;99.90;;;;;;4956634;28;20223;-60
2023/05/28 02:24:26;;;;;;;28.20;13.57;;;12.10;99.90;;;;;;4940479;28;20192;-59
2023/05/28 02:26:55;;;;;;;27.90;13.63;;;12.10;99.90;;;;;;4948243;28;20194;-60
2023/05/28 02:29:25;;;;;;;27.87;13.33;;;12.10;99.90;;;;;;4950682;28;20216;-60
2023/05/28 02:31:53;;;;;;;24.90;12.80;;;12.10;99.90;;;;;;4946920;28;20235;-60
2023/05/28 02:34:21;;;;;;;29.20;13.93;;;12.10;99.90;;;;;;4947285;28;20319;-60
2023/05/28 02:36:52;;;;;;;25.50;12.70;;;12.00;99.90;;;;;;4906870;28;1216454;-60
2023/05/28 02:39:21;;;;;;;22.03;12.60;;;12.00;99.90;;;;;;4947051;28;20196;-60
2023/05/28 02:41:49;;;;;;;26.60;13.57;;;11.90;99.90;;;;;;4948947;28;20216;-60
2023/05/28 02:44:17;;;;;;;32.03;13.17;;;11.90;99.90;;;;;;4946202;28;20695;-60
2023/05/28 02:46:47;;;;;;;30.53;13.47;;;11.90;99.90;;;;;;4950939;28;20223;-60
2023/05/28 02:49:15;;;;;;;28.93;13.87;;;11.80;99.90;;;;;;4945937;28;20228;-60
2023/05/28 02:51:44;;;;;;;27.10;13.33;;;11.80;99.90;;;;;;4949777;28;20200;-60
2023/05/28 02:54:12;;;;;;;27.73;13.87;;;11.80;99.90;;;;;;4944948;28;21083;-60
2023/05/28 02:56:40;;;;;;;28.63;14.57;;;11.80;99.90;;;;;;4943837;28;20283;-60
2023/05/28 02:59:09;;;;;;;31.43;13.93;;;11.80;99.90;;;;;;4955711;28;20316;-60
2023/05/28 03:01:37;;;;;;;31.43;14.13;;;11.70;99.90;;;;;;4954615;28;20238;-60
2023/05/28 03:04:07;;;;;;;25.40;13.50;;;11.70;99.90;;;;;;4949230;28;20250;-60
2023/05/28 03:06:36;;;;;;;22.97;13.20;;;11.70;99.90;;;;;;4949854;28;20220;-59
2023/05/28 03:09:05;;;;;;;29.73;14.83;;;11.60;99.90;;;;;;4950026;28;20263;-60
2023/05/28 03:11:33;;;;;;;34.10;15.17;;;11.60;99.90;;;;;;4948937;28;20227;-60
2023/05/28 03:14:01;;;;;;;28.87;14.83;;;11.60;99.90;;;;;;4949107;28;20228;-60
2023/05/28 03:16:32;;;;;;;34.47;15.03;;;11.60;99.90;;;;;;4950253;28;20231;-60
2023/05/28 03:19:01;;;;;;;33.30;15.47;;;11.60;99.90;;;;;;4946832;28;20240;-60
2023/05/28 03:21:31;;;;;;;27.63;14.83;;;11.60;99.90;;;;;;4948015;28;20204;-60
2023/05/28 03:23:59;;;;;;;26.83;15.50;;;11.60;99.90;;;;;;4953122;28;20248;-60
2023/05/28 03:26:28;;;;;;;32.33;14.90;;;11.60;99.90;;;;;;4947047;28;20226;-60
2023/05/28 03:28:56;;;;;;;32.00;15.33;;;11.50;99.90;;;;;;4948965;28;20257;-60
2023/05/28 03:31:28;;;;;;;30.60;15.37;;;11.60;99.90;;;;;;4951811;28;20238;-60
2023/05/28 03:33:57;;;;;;;32.90;14.50;;;11.50;99.90;;;;;;4944556;28;20575;-60
2023/05/28 03:36:25;;;;;;;27.47;14.90;;;11.40;99.90;;;;;;4963992;28;20238;-60
2023/05/28 03:38:56;;;;;;;27.77;14.37;;;11.30;99.90;;;;;;4960454;28;20227;-60
2023/05/28 03:41:25;;;;;;;30.33;15.13;;;11.30;99.90;;;;;;4957159;28;20224;-60
2023/05/28 03:43:54;;;;;;;28.23;14.93;;;11.30;99.90;;;;;;4954947;28;20228;-60
2023/05/28 03:46:24;;;;;;;29.00;15.53;;;11.30;99.90;;;;;;4954869;28;20227;-60
2023/05/28 03:48:53;;;;;;;29.87;14.67;;;11.30;99.90;;;;;;4954889;28;20356;-60
2023/05/28 03:51:21;;;;;;;27.83;15.07;;;11.30;99.90;;;;;;4951037;29;20255;-60
2023/05/28 03:53:49;;;;;;;27.53;13.27;;;11.30;99.90;;;;;;4947164;28;20684;-60
2023/05/28 03:56:19;;;;;;;27.83;13.77;;;11.30;99.90;;;;;;4953591;28;20606;-60
2023/05/28 03:58:47;;;;;;;24.33;14.73;;;11.30;99.90;;;;;;4958214;28;20235;-60
2023/05/28 04:01:16;;;;;;;25.43;14.60;;;11.30;99.90;;;;;;4955220;28;20295;-60
2023/05/28 04:03:44;;;;;;;28.73;15.20;;;11.30;99.90;;;;;;4953092;28;20291;-60
2023/05/28 04:06:13;;;;;;;28.67;14.90;;;11.30;99.90;;;;;;4949692;28;20239;-60
2023/05/28 04:08:42;;;;;;;30.83;16.27;;;11.30;99.90;;;;;;4952474;28;20559;-60
2023/05/28 04:11:10;;;;;;;30.27;15.43;;;11.20;99.90;;;;;;4952803;28;20256;-60
2023/05/28 04:13:41;;;;;;;29.47;14.83;;;11.20;99.90;;;;;;4953023;28;20230;-60
2023/05/28 04:16:09;;;;;;;28.20;14.93;;;11.20;99.90;;;;;;4944850;28;20228;-60
2023/05/28 04:18:38;;;;;;;31.20;15.20;;;11.20;99.90;;;;;;4950391;28;20212;-60
2023/05/28 04:21:07;;;;;;;31.47;15.67;;;11.30;99.90;;;;;;4953001;28;20223;-60
2023/05/28 04:23:36;;;;;;;32.80;16.10;;;11.30;99.90;;;;;;4957056;28;20224;-60
2023/05/28 04:26:06;;;;;;;31.43;14.73;;;11.30;99.90;;;;;;4954695;28;20227;-60
2023/05/28 04:28:34;;;;;;;32.37;16.53;;;11.30;99.90;;;;;;4952544;28;20223;-60
2023/05/28 04:31:04;;;;;;;35.17;15.57;;;11.40;99.90;;;;;;4949386;28;20239;-60
2023/05/28 04:33:33;;;;;;;33.77;15.90;;;11.40;99.90;;;;;;4947937;28;20192;-60
2023/05/28 04:36:03;;;;;;;37.97;17.43;;;11.40;99.90;;;;;;4954002;28;20211;-60
2023/05/28 04:38:32;;;;;;;32.20;16.90;;;11.50;99.90;;;;;;4943192;28;20226;-60
2023/05/28 04:41:03;;;;;;;31.47;16.87;;;11.60;99.90;;;;;;4949827;28;20348;-60
2023/05/28 04:43:33;;;;;;;37.53;17.67;;;11.60;99.90;;;;;;4950461;28;20227;-60
2023/05/28 04:46:03;;;;;;;41.60;18.67;;;11.70;99.90;;;;;;4950928;28;20262;-60
2023/05/28 04:48:35;;;;;;;35.40;18.00;;;11.80;99.90;;;;;;4952092;28;20192;-60
2023/05/28 04:51:05;;;;;;;35.57;18.20;;;11.80;99.90;;;;;;4954934;28;20196;-60
2023/05/28 04:53:34;;;;;;;35.47;18.37;;;11.90;99.90;;;;;;4954375;28;20673;-60
2023/05/28 04:56:03;;;;;;;36.27;18.10;;;12.00;99.90;;;;;;4954148;28;20274;-60
2023/05/28 04:58:32;;;;;;;39.27;17.33;;;12.10;99.90;;;;;;4949528;28;20216;-60
2023/05/28 05:01:00;;;;;;;42.87;18.37;;;12.20;99.90;;;;;;4952713;28;20594;-60
2023/05/28 05:03:31;;;;;;;35.07;17.73;;;12.30;99.90;;;;;;4951466;28;20195;-59
2023/05/28 05:06:02;;;;;;;36.53;17.77;;;12.30;99.90;;;;;;4951471;29;20599;-60
2023/05/28 05:08:31;;;;;;;37.30;16.90;;;12.40;99.90;;;;;;4953561;28;20219;-60
2023/05/28 05:11:02;;;;;;;37.00;18.03;;;12.50;99.90;;;;;;4948793;28;20231;-60
2023/05/28 05:13:30;;;;;;;40.53;17.40;;;12.60;99.90;;;;;;4947897;28;20231;-60
2023/05/28 05:15:58;;;;;;;45.37;17.43;;;12.70;99.90;;;;;;4946896;28;20235;-60
2023/05/28 05:18:26;;;;;;;45.23;18.77;;;12.70;99.90;;;;;;4956161;28;20212;-59
2023/05/28 05:20:55;;;;;;;33.40;16.17;;;12.80;99.90;;;;;;4950186;28;20294;-60
2023/05/28 05:23:26;;;;;;;43.10;17.47;;;13.00;99.90;;;;;;4949672;28;20624;-60
2023/05/28 05:25:54;;;;;;;38.90;16.70;;;13.00;99.90;;;;;;4952422;28;20216;-60
2023/05/28 05:28:23;;;;;;;32.40;17.10;;;13.10;99.90;;;;;;4953134;28;20231;-60
2023/05/28 05:30:51;;;;;;;39.90;17.57;;;13.10;99.90;;;;;;4952461;28;20227;-60
2023/05/28 05:33:19;;;;;;;36.73;16.87;;;13.20;99.90;;;;;;4951522;28;20184;-60
2023/05/28 05:35:48;;;;;;;31.27;16.17;;;13.30;99.90;;;;;;4950955;28;20217;-60
2023/05/28 05:38:16;;;;;;;36.43;16.27;;;13.40;99.90;;;;;;4951944;28;20648;-60
2023/05/28 05:40:46;;;;;;;40.77;16.60;;;13.50;99.90;;;;;;4953543;28;20676;-60
2023/05/28 05:43:14;;;;;;;37.00;15.97;;;13.60;99.90;;;;;;4952563;28;20269;-60
2023/05/28 05:45:44;;;;;;;30.07;16.40;;;13.70;99.90;;;;;;4953363;28;20752;-60
2023/05/28 05:48:12;;;;;;;36.30;16.63;;;13.90;99.90;;;;;;4954282;28;20295;-60
2023/05/28 05:50:50;;;;;;;34.40;16.73;;;14.00;99.90;;;;;;4952013;28;20264;-60
2023/05/28 05:53:21;;;;;;;27.87;15.77;;;14.10;99.90;;;;;;4953493;28;20219;-60
2023/05/28 05:55:51;;;;;;;36.90;16.53;;;14.20;99.90;;;;;;4953048;28;20674;-60
2023/05/28 05:58:20;;;;;;;35.00;15.90;;;14.40;99.90;;;;;;4951373;28;20278;-60
2023/05/28 06:00:49;;;;;;;28.67;15.30;;;14.50;99.90;;;;;;4952841;28;20235;-60
2023/05/28 06:03:17;;;;;;;29.43;14.97;;;14.60;99.90;;;;;;4950322;28;20299;-60
2023/05/28 06:05:46;;;;;;;30.97;14.77;;;14.80;99.90;;;;;;4950703;28;20564;-60
2023/05/28 06:08:14;;;;;;;30.43;14.60;;;14.90;99.90;;;;;;4949500;28;20228;-60
2023/05/28 06:10:43;;;;;;;27.63;14.37;;;15.00;99.90;;;;;;4950491;28;20220;-60
2023/05/28 06:13:15;;;;;;;32.87;14.33;;;15.10;99.90;;;;;;4946397;28;20228;-61
2023/05/28 06:15:44;;;;;;;31.67;14.50;;;15.10;99.90;;;;;;4950724;28;20644;-60
2023/05/28 06:18:13;;;;;;;32.67;14.60;;;15.20;99.90;;;;;;4960189;28;20202;-61
2023/05/28 06:20:42;;;;;;;24.20;13.67;;;15.20;99.90;;;;;;4955530;28;20239;-61
2023/05/28 06:23:10;;;;;;;23.47;13.17;;;15.30;99.90;;;;;;4953937;28;20305;-61
2023/05/28 06:25:39;;;;;;;27.47;13.67;;;15.40;99.90;;;;;;4949912;28;20224;-61
2023/05/28 06:28:07;;;;;;;26.27;12.53;;;15.40;99.90;;;;;;4953094;28;20230;-61
2023/05/28 06:30:37;;;;;;;24.43;13.40;;;15.50;99.90;;;;;;4952150;28;20221;-60
2023/05/28 06:33:05;;;;;;;31.07;12.90;;;15.70;99.90;;;;;;4953079;28;20189;-61
2023/05/28 06:35:34;;;;;;;28.03;12.90;;;15.80;99.90;;;;;;4953025;28;20220;-61
2023/05/28 06:38:03;;;;;;;27.97;13.20;;;16.00;99.90;;;;;;4951983;28;20240;-61
2023/05/28 06:40:31;;;;;;;26.47;13.20;;;16.10;99.90;;;;;;4953222;28;20345;-61
2023/05/28 06:43:01;;;;;;;25.00;12.33;;;16.30;99.90;;;;;;4957562;28;20261;-61
2023/05/28 06:45:32;;;;;;;24.43;12.70;;;16.40;99.90;;;;;;4948813;28;20204;-60
2023/05/28 06:48:03;;;;;;;26.00;12.83;;;16.40;99.90;;;;;;4949823;28;20214;-60
2023/05/28 06:50:31;;;;;;;22.30;12.27;;;16.50;99.90;;;;;;4951464;28;20226;-61
2023/05/28 06:53:00;;;;;;;27.40;12.57;;;16.60;99.90;;;;;;4946456;28;20221;-60
2023/05/28 06:55:28;;;;;;;20.17;11.87;;;16.80;99.90;;;;;;4949589;28;20239;-60
2023/05/28 06:57:57;;;;;;;25.00;11.50;;;17.00;99.90;;;;;;4947714;28;20228;-60
2023/05/28 07:00:25;;;;;;;26.30;12.10;;;17.20;99.90;;;;;;4942138;28;21090;-60
2023/05/28 07:02:53;;;;;;;31.87;13.00;;;17.40;99.90;;;;;;4929875;29;20220;-60
2023/05/28 07:05:23;;;;;;;21.10;11.43;;;17.50;99.90;;;;;;4948575;28;20250;-60
2023/05/28 07:07:52;;;;;;;25.13;12.20;;;17.60;99.90;;;;;;4950184;28;20227;-60
2023/05/28 07:10:20;;;;;;;20.90;11.63;;;17.80;99.90;;;;;;4946533;28;20243;-61
2023/05/28 07:12:48;;;;;;;21.30;11.60;;;18.00;99.90;;;;;;4947291;28;20570;-60
2023/05/28 07:15:17;;;;;;;25.80;12.40;;;18.00;99.90;;;;;;4941703;28;20200;-60
2023/05/28 07:17:46;;;;;;;25.67;12.00;;;18.10;99.90;;;;;;4942052;28;20235;-60
2023/05/28 07:20:16;;;;;;;19.77;11.53;;;18.20;99.90;;;;;;4944069;28;20219;-60
2023/05/28 07:22:45;;;;;;;26.07;12.00;;;18.30;99.90;;;;;;4928407;28;20572;-60
2023/05/28 07:25:14;;;;;;;23.93;11.40;;;18.40;99.90;;;;;;4937492;28;20229;-60
2023/05/28 07:27:42;;;;;;;24.47;11.37;;;18.60;99.90;;;;;;4943599;28;20208;-60
2023/05/28 07:30:11;;;;;;;21.10;10.50;;;18.60;99.90;;;;;;4941680;28;20195;-60
2023/05/28 07:32:40;;;;;;;20.17;10.93;;;18.80;99.90;;;;;;4947660;28;20561;-60
2023/05/28 07:35:08;;;;;;;18.30;9.90;;;19.00;99.90;;;;;;4942783;28;20295;-61
2023/05/28 07:37:38;;;;;;;17.77;9.57;;;19.30;99.90;;;;;;4942719;28;20509;-60
2023/05/28 07:40:10;;;;;;;22.80;9.10;;;19.60;99.90;;;;;;4940426;28;20228;-61
2023/05/28 07:42:39;;;;;;;17.43;9.30;;;19.70;99.90;;;;;;4940462;28;20192;-60
2023/05/28 07:45:08;;;;;;;17.33;8.90;;;19.90;99.90;;;;;;4943437;28;20196;-60
2023/05/28 07:47:36;;;;;;;18.27;8.97;;;20.30;99.90;;;;;;4947581;28;20227;-60
2023/05/28 07:50:05;;;;;;;20.40;9.23;;;20.60;99.90;;;;;;4953831;28;20238;-61
2023/05/28 07:52:34;;;;;;;14.50;8.23;;;20.80;99.90;;;;;;4949314;28;20574;-60
2023/05/28 07:55:03;;;;;;;15.13;8.00;;;20.80;99.90;;;;;;4944323;28;20657;-61
2023/05/28 07:57:32;;;;;;;16.50;8.23;;;20.70;99.90;;;;;;4948655;28;20204;-61
2023/05/28 08:00:02;;;;;;;14.27;8.30;;;20.70;99.90;;;;;;4945765;28;20220;-60
2023/05/28 08:02:30;;;;;;;14.77;7.73;;;20.90;99.90;;;;;;4950774;28;20231;-61
2023/05/28 08:05:00;;;;;;;14.43;6.83;;;21.10;99.90;;;;;;4945781;28;20279;-61
2023/05/28 08:07:29;;;;;;;12.60;6.87;;;21.30;99.90;;;;;;4944149;28;20225;-61
2023/05/28 08:09:57;;;;;;;15.57;6.93;;;21.50;99.90;;;;;;4937938;28;20231;-60
2023/05/28 08:12:26;;;;;;;14.67;6.77;;;21.70;99.90;;;;;;4936826;28;20595;-60
2023/05/28 08:14:56;;;;;;;10.97;6.43;;;21.70;99.90;;;;;;4947743;28;20709;-61
2023/05/28 08:17:24;;;;;;;11.53;6.40;;;22.00;99.90;;;;;;4942100;28;20222;-61
2023/05/28 08:19:52;;;;;;;13.97;6.37;;;22.10;99.90;;;;;;4943764;28;20311;-61
2023/05/28 08:22:24;;;;;;;11.47;5.77;;;22.20;99.90;;;;;;4945211;28;20240;-60
2023/05/28 08:24:52;;;;;;;13.07;6.07;;;22.30;99.90;;;;;;4940919;28;20317;-61
2023/05/28 08:27:21;;;;;;;12.13;6.30;;;22.50;99.90;;;;;;4939466;28;20215;-60
2023/05/28 08:29:49;;;;;;;11.33;5.90;;;22.70;99.90;;;;;;4939912;28;20219;-61
2023/05/28 08:32:19;;;;;;;7.30;5.27;;;23.00;99.90;;;;;;4948044;28;20236;-60
2023/05/28 08:34:47;;;;;;;15.63;6.00;;;23.00;99.90;;;;;;4941744;28;20240;-60
2023/05/28 08:37:16;;;;;;;14.37;5.33;;;23.10;99.90;;;;;;4940695;28;21068;-61
2023/05/28 08:39:44;;;;;;;10.73;5.50;;;23.20;99.90;;;;;;4945935;28;20204;-61
2023/05/28 08:42:15;;;;;;;11.13;5.07;;;23.40;99.90;;;;;;4947197;28;20536;-60
2023/05/28 08:44:43;;;;;;;10.63;5.28;;;23.70;99.90;;;;;;4940706;28;20243;-60
2023/05/28 08:47:12;;;;;;;11.30;5.28;;;23.80;99.90;;;;;;4947614;28;20231;-61
2023/05/28 08:49:51;;;;;;;9.52;5.18;;;23.80;99.90;;;;;;4951557;28;20234;-61
2023/05/28 08:52:20;;;;;;;7.70;5.03;;;23.70;99.90;;;;;;4950340;28;20219;-60
2023/05/28 08:54:49;;;;;;;9.30;4.97;;;23.50;99.90;;;;;;4939753;28;20231;-61
2023/05/28 08:57:18;;;;;;;10.87;5.33;;;23.60;99.90;;;;;;4948557;28;20210;-61
2023/05/28 08:59:48;;;;;;;9.57;4.47;;;23.40;99.90;;;;;;4947260;28;20227;-60
2023/05/28 09:02:16;;;;;;;9.97;4.77;;;23.40;99.90;;;;;;4956941;28;20229;-60
2023/05/28 09:04:46;;;;;;;13.50;5.30;;;23.30;99.90;;;;;;4948226;28;20318;-60
2023/05/28 09:07:14;;;;;;;15.53;4.90;;;23.50;99.90;;;;;;4940788;28;20885;-60
2023/05/28 09:09:43;;;;;;;11.97;4.83;;;23.90;99.90;;;;;;4938857;28;20200;-60
2023/05/28 09:12:13;;;;;;;10.77;4.60;;;24.20;99.90;;;;;;4943527;28;20208;-60
2023/05/28 09:14:42;;;;;;;9.38;5.07;;;24.60;99.90;;;;;;4943663;28;20233;-60
2023/05/28 09:17:13;;;;;;;6.68;4.60;;;25.20;99.90;;;;;;4946572;28;20225;-60
2023/05/28 09:19:52;;;;;;;10.90;4.70;;;25.40;99.90;;;;;;4947260;28;21113;-60
2023/05/28 09:22:21;;;;;;;9.63;4.50;;;25.60;99.90;;;;;;4943098;28;20716;-61
2023/05/28 09:24:50;;;;;;;10.02;4.50;;;25.80;99.90;;;;;;4943986;28;20238;-60
2023/05/28 09:27:19;;;;;;;11.27;4.47;;;26.00;99.90;;;;;;4944842;28;20298;-61
2023/05/28 09:29:48;;;;;;;6.68;4.30;;;26.40;99.90;;;;;;4950811;28;20234;-61
2023/05/28 09:32:20;;;;;;;8.80;4.90;;;26.70;99.90;;;;;;4948031;28;20265;-61
2023/05/28 09:34:51;;;;;;;9.50;4.32;;;26.80;99.90;;;;;;4949888;28;20242;-61
2023/05/28 09:37:21;;;;;;;12.15;4.45;;;27.00;99.90;;;;;;4945946;28;20232;-61
2023/05/28 09:40:01;;;;;;;7.93;4.03;;;27.20;99.90;;;;;;4948349;28;20224;-61
2023/05/28 09:42:34;;;;;;;7.38;3.95;;;27.20;99.90;;;;;;4938626;28;20264;-60
2023/05/28 09:45:04;;;;;;;5.43;4.22;;;27.50;99.90;;;;;;4948263;28;20560;-61
2023/05/28 09:47:32;;;;;;;8.73;4.43;;;27.20;99.90;;;;;;4951343;28;20581;-61
2023/05/28 09:50:02;;;;;;;8.15;4.25;;;27.20;99.90;;;;;;4947407;28;20268;-61
2023/05/28 09:52:31;;;;;;;10.18;4.32;;;27.30;99.90;;;;;;4945003;28;20248;-60
2023/05/28 09:55:02;;;;;;;7.45;4.88;;;27.50;99.90;;;;;;4941724;28;20341;-61
2023/05/28 09:57:31;;;;;;;7.45;4.25;;;27.60;99.90;;;;;;4945827;28;20223;-61
2023/05/28 10:00:11;;;;;;;6.90;4.40;;;27.80;99.90;;;;;;4944174;28;20204;-61
2023/05/28 10:02:46;;;;;;;8.98;4.40;;;27.70;99.90;;;;;;4946810;28;20228;-61
2023/05/28 10:05:20;;;;;;;8.55;4.43;;;28.00;99.90;;;;;;4949023;28;20282;-61
2023/05/28 10:07:52;;;;;;;10.05;5.13;;;27.90;99.90;;;;;;4949621;28;20703;-60
2023/05/28 10:10:22;;;;;;;10.85;4.78;;;27.70;99.90;;;;;;4948180;28;20668;-61
2023/05/28 10:12:53;;;;;;;13.68;4.88;;;27.90;99.90;;;;;;4948531;28;20231;-61
2023/05/28 10:15:21;;;;;;;9.43;4.90;;;28.10;99.90;;;;;;4948812;29;20192;-61
2023/05/28 10:17:51;;;;;;;7.82;4.65;;;28.40;99.90;;;;;;4944145;28;20247;-61
2023/05/28 10:20:22;;;;;;;9.27;4.97;;;28.60;99.90;;;;;;4944156;28;20229;-60
2023/05/28 10:22:50;;;;;;;7.18;4.53;;;28.70;99.90;;;;;;4947868;28;20302;-61
2023/05/28 10:25:19;;;;;;;10.80;5.13;;;28.60;99.90;;;;;;4944604;28;20224;-61
2023/05/28 10:27:49;;;;;;;13.00;4.43;;;28.30;99.90;;;;;;4945814;28;20610;-61
2023/05/28 10:30:33;;;;;;;8.70;4.70;;;28.30;99.90;;;;;;4949231;28;21180;-61
2023/05/28 10:33:05;;;;;;;7.03;4.35;;;28.20;99.90;;;;;;4948630;28;20227;-61
2023/05/28 10:35:36;;;;;;;11.27;4.30;;;28.50;99.90;;;;;;4951908;28;20225;-61
2023/05/28 10:38:10;;;;;;;9.93;4.15;;;28.60;99.90;;;;;;4947053;28;20232;-61
2023/05/28 10:40:40;;;;;;;10.40;4.70;;;28.90;99.90;;;;;;4944387;28;20298;-61
2023/05/28 10:43:47;;;;;;;12.73;5.00;;;29.10;99.90;;;;;;4941811;28;20234;-61
2023/05/28 10:46:18;;;;;;;9.85;4.47;;;29.00;99.90;;;;;;4922667;28;20226;-61
2023/05/28 10:49:06;;;;;;;9.30;4.10;;;28.90;99.90;;;;;;4945952;28;20824;-61
2023/05/28 10:52:03;;;;;;;7.60;4.05;;;29.10;99.90;;;;;;4948324;28;20856;-61
2023/05/28 10:54:45;;;;;;;10.93;4.38;;;29.30;99.80;;;;;;4901766;28;20572;-61
2023/05/28 10:57:15;;;;;;;6.55;3.50;;;29.20;98.10;;;;;;4942447;29;20592;-61
2023/05/28 10:59:47;;;;;;;8.65;4.40;;;29.10;98.40;;;;;;4941308;28;20228;-61
2023/05/28 11:02:21;;;;;;;8.90;4.35;;;29.20;98.70;;;;;;4948016;28;20246;-61
2023/05/28 11:04:55;;;;;;;8.35;4.53;;;29.00;99.80;;;;;;4946406;28;20227;-61
2023/05/28 11:07:30;;;;;;;9.48;4.72;;;28.90;99.50;;;;;;4947134;28;20691;-61
2023/05/28 11:09:59;;;;;;;9.82;4.45;;;28.80;99.90;;;;;;4943571;28;20371;-61
2023/05/28 11:12:29;;;;;;;7.13;4.25;;;28.60;99.90;;;;;;4944902;28;20689;-60
2023/05/28 11:15:17;;;;;;;6.18;4.07;;;28.70;99.90;;;;;;4944775;28;20846;-61
2023/05/28 11:18:08;;;;;;;8.18;4.53;;;28.60;99.20;;;;;;4948156;28;20223;-61
2023/05/28 11:20:37;;;;;;;7.68;4.43;;;28.70;99.50;;;;;;4943402;28;20225;-61
2023/05/28 11:23:17;;;;;;;9.82;4.40;;;28.40;99.90;;;;;;4946456;28;20235;-61
2023/05/28 11:25:48;;;;;;;8.07;3.72;;;28.30;99.90;;;;;;4946115;28;20222;-60
2023/05/28 11:28:19;;;;;;;7.25;4.40;;;28.20;99.90;;;;;;4944840;28;20224;-61
2023/05/28 11:30:52;;;;;;;12.98;5.20;;;28.00;99.80;;;;;;4936944;28;20233;-61
2023/05/28 11:33:21;;;;;;;6.30;4.50;;;27.90;99.90;;;;;;4938486;28;20185;-61
2023/05/28 11:35:57;;;;;;;10.23;4.40;;;28.00;99.90;;;;;;4937939;28;20225;-61
2023/05/28 11:38:27;;;;;;;8.90;4.35;;;27.90;99.30;;;;;;4946646;28;20228;-60
2023/05/28 11:41:01;;;;;;;8.02;4.30;;;27.80;99.40;;;;;;4940473;28;20689;-61
2023/05/28 11:43:29;;;;;;;10.07;4.60;;;27.20;99.50;;;;;;4947380;28;20220;-61
2023/05/28 11:45:59;;;;;;;10.57;4.38;;;27.10;99.70;;;;;;4946242;28;20237;-61
2023/05/28 11:48:28;;;;;;;7.27;4.43;;;27.00;99.70;;;;;;4951034;28;20193;-61
2023/05/28 11:51:03;;;;;;;7.83;4.23;;;27.10;99.90;;;;;;4951122;28;20962;-61
2023/05/28 11:53:43;;;;;;;7.57;4.43;;;27.00;99.90;;;;;;4947534;28;20282;-61
2023/05/28 11:56:12;;;;;;;12.00;3.70;;;27.10;99.90;;;;;;4953000;28;20220;-61
2023/05/28 11:58:45;;;;;;;10.03;4.00;;;27.10;99.40;;;;;;4949360;28;20260;-60
2023/05/28 12:01:15;;;;;;;9.43;4.47;;;27.00;99.90;;;;;;4954749;28;20227;-60
2023/05/28 12:03:44;;;;;;;6.13;3.73;;;27.20;99.90;;;;;;4956558;28;20268;-61
2023/05/28 12:06:12;;;;;;;8.17;4.47;;;27.10;99.90;;;;;;4945389;28;20211;-60
2023/05/28 12:08:52;;;;;;;7.33;4.03;;;27.20;99.90;;;;;;4948306;28;20234;-60
2023/05/28 12:11:26;;;;;;;11.53;5.17;;;27.30;99.90;;;;;;4947929;28;20294;-61
2023/05/28 12:13:56;;;;;;;7.33;4.33;;;27.40;99.90;;;;;;4947440;28;20306;-61
2023/05/28 12:16:27;;;;;;;7.80;4.20;;;27.30;99.90;;;;;;4943860;28;20735;-61
2023/05/28 12:19:02;;;;;;;9.73;4.80;;;27.30;99.90;;;;;;4943540;28;20216;-60
2023/05/28 12:21:35;;;;;;;8.33;4.33;;;26.90;99.10;;;;;;4945119;28;20210;-60
2023/05/28 12:24:13;;;;;;;9.13;4.63;;;26.90;99.90;;;;;;4955024;28;20216;-60
2023/05/28 12:26:43;;;;;;;5.53;4.20;;;26.90;99.90;;;;;;4946201;28;20590;-60
2023/05/28 12:29:12;;;;;;;8.60;4.30;;;26.80;99.90;;;;;;4948975;28;20220;-60
2023/05/28 12:31:40;;;;;;;9.37;4.37;;;26.70;99.90;;;;;;4951727;28;20609;-60
2023/05/28 12:34:09;;;;;;;7.87;4.03;;;26.50;99.90;;;;;;4954358;28;20318;-60
2023/05/28 12:36:37;;;;;;;6.30;3.83;;;26.50;99.90;;;;;;4951757;28;20235;-60
2023/05/28 12:39:07;;;;;;;7.63;4.20;;;26.50;99.90;;;;;;4953657;28;20196;-59
2023/05/28 12:41:35;;;;;;;11.97;4.70;;;26.40;99.40;;;;;;4955177;28;20220;-60
2023/05/28 12:44:03;;;;;;;10.60;4.50;;;26.30;99.90;;;;;;4953210;28;20271;-60
2023/05/28 12:46:32;;;;;;;6.33;4.10;;;26.30;99.90;;;;;;4950456;28;20248;-59
2023/05/28 12:49:00;;;;;;;8.43;4.43;;;26.40;99.90;;;;;;4954229;28;20236;-61